Time;durP1;ratioP1;P1;durP2;ratioP2;P2;SDS_P1;SDS_P2;PMS_P1;PMS_P2;Temp;Humidity;BMP_temperature;BMP_pressure;BME280_temperature;BME280_humidity;BME280_pressure;Samples;Min_cycle;Max_cycle;Signal;HPM_P1;HPM_P2
2023/08/19 00:00:08;;;;;;;1999.90;999.90;;;22.00;99.90;;;;;;5009122;28;20437;-66
2023/08/19 00:02:36;;;;;;;1999.90;999.90;;;22.10;99.90;;;;;;4992265;28;20860;-66
2023/08/19 00:05:03;;;;;;;1999.90;999.90;;;22.10;99.90;;;;;;5010388;28;20435;-66
2023/08/19 00:07:30;;;;;;;1999.90;999.90;;;22.00;99.90;;;;;;5010049;28;20421;-66
2023/08/19 00:09:57;;;;;;;1999.90;999.90;;;22.00;99.90;;;;;;5007581;28;20436;-66
2023/08/19 00:12:25;;;;;;;1999.90;999.90;;;22.00;99.90;;;;;;5007960;28;20520;-66
2023/08/19 00:14:54;;;;;;;1999.90;999.90;;;21.90;99.90;;;;;;5009483;28;20417;-65
2023/08/19 00:17:21;;;;;;;1999.90;999.90;;;21.80;99.90;;;;;;5009873;28;20416;-65
2023/08/19 00:19:48;;;;;;;1999.90;999.90;;;21.90;99.90;;;;;;5009106;28;20789;-66
2023/08/19 00:22:15;;;;;;;1999.90;999.90;;;21.90;99.90;;;;;;5008977;28;20463;-66
2023/08/19 00:24:41;;;;;;;1999.90;999.90;;;21.90;99.90;;;;;;5009890;28;20416;-65
2023/08/19 00:27:08;;;;;;;1999.90;999.90;;;21.90;99.90;;;;;;5009904;28;20769;-68
2023/08/19 00:29:36;;;;;;;1999.90;999.90;;;21.80;99.90;;;;;;5008141;28;20942;-67
2023/08/19 00:32:04;;;;;;;1999.90;999.90;;;21.80;99.90;;;;;;5009694;28;20408;-67
2023/08/19 00:34:30;;;;;;;1999.90;999.90;;;21.80;99.90;;;;;;5009929;28;20840;-67
2023/08/19 00:36:57;;;;;;;1999.90;999.90;;;21.80;99.90;;;;;;5010175;28;20423;-67
2023/08/19 00:39:24;;;;;;;1999.90;999.90;;;21.80;99.90;;;;;;5010205;28;20416;-67
2023/08/19 00:41:53;;;;;;;1999.90;999.90;;;21.80;99.90;;;;;;5008393;28;20432;-67
2023/08/19 00:44:20;;;;;;;1999.90;999.90;;;21.90;99.90;;;;;;5013560;28;20427;-67
2023/08/19 00:46:48;;;;;;;1999.90;999.90;;;22.00;99.90;;;;;;5013645;28;20784;-67
2023/08/19 00:49:15;;;;;;;1999.90;999.90;;;22.00;99.90;;;;;;5012698;28;20419;-67
2023/08/19 00:51:42;;;;;;;1999.90;999.90;;;21.80;99.90;;;;;;5012845;28;20408;-67
2023/08/19 00:54:08;;;;;;;1999.90;999.90;;;21.70;99.90;;;;;;5013109;28;20413;-68
2023/08/19 00:56:36;;;;;;;1999.90;999.90;;;21.60;99.90;;;;;;5012978;28;20417;-68
2023/08/19 00:59:02;;;;;;;1999.90;999.90;;;21.50;99.90;;;;;;5013165;28;20417;-67
2023/08/19 01:01:29;;;;;;;1999.90;999.90;;;21.50;99.90;;;;;;5011986;28;20436;-67
2023/08/19 01:03:57;;;;;;;1999.90;999.90;;;21.50;99.90;;;;;;5013084;28;20412;-67
2023/08/19 01:06:27;;;;;;;1999.90;999.90;;;21.50;99.90;;;;;;5012952;28;20413;-67
2023/08/19 01:09:03;;;;;;;1999.90;999.90;;;21.60;99.90;;;;;;5012827;28;20412;-68
2023/08/19 01:11:47;;;;;;;1999.90;999.90;;;21.70;99.90;;;;;;5011878;28;20440;-67
2023/08/19 01:14:28;;;;;;;1999.90;999.90;;;21.70;99.90;;;;;;5012737;28;20923;-67
2023/08/19 01:16:56;;;;;;;1999.90;999.90;;;21.70;99.90;;;;;;5012595;28;20416;-67
2023/08/19 01:19:29;;;;;;;1999.90;999.90;;;21.70;99.90;;;;;;5010852;28;20437;-67
2023/08/19 01:22:01;;;;;;;1999.90;999.90;;;21.70;99.90;;;;;;5011383;28;20436;-67
2023/08/19 01:24:34;;;;;;;1999.90;999.90;;;21.80;99.90;;;;;;5012722;28;20412;-67
2023/08/19 01:27:03;;;;;;;1999.90;999.90;;;21.90;99.90;;;;;;5012567;28;20440;-67
2023/08/19 01:29:30;;;;;;;1999.90;999.90;;;22.00;99.90;;;;;;5011211;28;20432;-67
2023/08/19 01:31:57;;;;;;;1999.90;999.90;;;22.10;99.90;;;;;;5012162;28;20785;-67
2023/08/19 01:34:25;;;;;;;1999.90;999.90;;;22.20;99.90;;;;;;5012463;28;20788;-67
2023/08/19 01:36:58;;;;;;;1999.90;999.90;;;22.30;99.90;;;;;;5012477;28;20417;-67
2023/08/19 01:39:26;;;;;;;1999.90;999.90;;;22.20;99.90;;;;;;5009635;28;20917;-66
2023/08/19 01:41:54;;;;;;;1999.90;999.90;;;22.20;99.90;;;;;;5011881;28;20786;-67
2023/08/19 01:44:22;;;;;;;1999.90;999.90;;;22.20;99.90;;;;;;5011178;28;20439;-67
2023/08/19 01:46:49;;;;;;;1999.90;999.90;;;22.20;99.90;;;;;;5011904;28;20409;-67
2023/08/19 01:49:15;;;;;;;1999.90;999.90;;;22.00;99.90;;;;;;5011411;28;20441;-67
2023/08/19 01:51:42;;;;;;;1999.90;999.90;;;22.00;99.90;;;;;;5009993;28;20440;-68
2023/08/19 01:54:09;;;;;;;1999.90;999.90;;;21.90;99.90;;;;;;5012121;28;20417;-67
2023/08/19 01:56:36;;;;;;;1999.90;999.90;;;21.90;99.90;;;;;;5011933;28;20413;-67
2023/08/19 01:59:05;;;;;;;1999.90;999.90;;;21.90;99.90;;;;;;5010679;28;20436;-67
2023/08/19 02:01:31;;;;;;;1999.90;999.90;;;21.90;99.90;;;;;;5011509;28;20417;-67
2023/08/19 02:03:58;;;;;;;1999.90;999.90;;;21.90;99.90;;;;;;5010430;28;20432;-67
2023/08/19 02:06:25;;;;;;;1999.90;999.90;;;21.90;99.90;;;;;;5011715;28;20428;-67
2023/08/19 02:08:52;;;;;;;1999.90;999.90;;;21.80;99.90;;;;;;5011054;28;20443;-67
2023/08/19 02:11:19;;;;;;;1999.90;999.90;;;21.80;99.90;;;;;;5011274;28;20417;-67
2023/08/19 02:13:46;;;;;;;1999.90;999.90;;;21.80;99.90;;;;;;5012019;28;20443;-67
2023/08/19 02:16:14;;;;;;;1999.90;999.90;;;21.80;99.90;;;;;;5011642;28;20416;-67
2023/08/19 02:18:41;;;;;;;1999.90;999.90;;;21.70;99.90;;;;;;5010910;28;20476;-67
2023/08/19 02:21:07;;;;;;;1999.90;999.90;;;21.70;99.90;;;;;;5011259;28;20413;-67
2023/08/19 02:23:34;;;;;;;1999.90;999.90;;;21.70;99.90;;;;;;5011512;28;20428;-67
2023/08/19 02:26:01;;;;;;;1999.90;999.90;;;21.60;99.90;;;;;;5011279;28;20420;-67
2023/08/19 02:28:27;;;;;;;1999.90;999.90;;;21.60;99.90;;;;;;5010034;28;20436;-67
2023/08/19 02:30:54;;;;;;;1999.90;999.90;;;21.60;99.90;;;;;;5011212;28;20416;-66
2023/08/19 02:33:22;;;;;;;1999.90;999.90;;;21.60;99.90;;;;;;5011482;28;20416;-67
2023/08/19 02:35:51;;;;;;;1999.90;999.90;;;21.60;99.90;;;;;;5011257;28;20404;-67
2023/08/19 02:38:18;;;;;;;1999.90;999.90;;;21.70;99.90;;;;;;5010298;28;20982;-67
2023/08/19 02:40:49;;;;;;;1999.90;999.90;;;21.70;99.90;;;;;;5010877;28;20417;-67
2023/08/19 02:43:16;;;;;;;1999.90;999.90;;;21.70;99.90;;;;;;5011129;28;20424;-67
2023/08/19 02:45:43;;;;;;;1999.90;999.90;;;21.80;99.90;;;;;;5011130;28;20900;-67
2023/08/19 02:48:09;;;;;;;1999.90;999.90;;;21.70;99.90;;;;;;5010221;28;20416;-67
2023/08/19 02:50:37;;;;;;;1999.90;999.90;;;21.80;99.90;;;;;;5005331;28;20429;-67
2023/08/19 02:53:04;;;;;;;1999.90;999.90;;;21.80;99.90;;;;;;5010722;28;20408;-67
2023/08/19 02:55:31;;;;;;;1999.90;999.90;;;21.70;99.90;;;;;;5011168;28;20498;-67
2023/08/19 02:57:59;;;;;;;1999.90;999.90;;;21.60;99.90;;;;;;5010823;28;20783;-67
2023/08/19 03:00:27;;;;;;;1999.90;999.90;;;21.50;99.90;;;;;;5009341;28;20486;-67
2023/08/19 03:02:55;;;;;;;1999.90;999.90;;;21.50;99.90;;;;;;5004298;28;20461;-67
2023/08/19 03:05:22;;;;;;;1999.90;999.90;;;21.40;99.90;;;;;;5010744;28;20417;-67
2023/08/19 03:07:50;;;;;;;1999.90;999.90;;;21.50;99.90;;;;;;5010535;28;20413;-67
2023/08/19 03:10:16;;;;;;;1999.90;999.90;;;21.40;99.90;;;;;;5009886;28;20444;-67
2023/08/19 03:12:43;;;;;;;1999.90;999.90;;;21.20;99.90;;;;;;5010644;28;20417;-67
2023/08/19 03:15:10;;;;;;;1999.90;999.90;;;21.00;99.90;;;;;;5010833;28;20420;-67
2023/08/19 03:17:37;;;;;;;1999.90;999.90;;;20.90;99.90;;;;;;5010467;28;20424;-67
2023/08/19 03:20:05;;;;;;;1999.90;999.90;;;20.80;99.90;;;;;;5009664;28;20439;-67
2023/08/19 03:22:32;;;;;;;1999.90;999.90;;;20.70;99.90;;;;;;5010089;28;20436;-67
2023/08/19 03:25:00;;;;;;;1999.90;999.90;;;20.60;99.90;;;;;;5010669;28;20408;-67
2023/08/19 03:27:27;;;;;;;1999.90;999.90;;;20.50;99.90;;;;;;5010504;28;20408;-67
2023/08/19 03:29:54;;;;;;;1999.90;999.90;;;20.40;99.90;;;;;;5009350;28;20929;-67
2023/08/19 03:32:20;;;;;;;1999.90;999.90;;;20.30;99.90;;;;;;5010012;28;20439;-67
2023/08/19 03:34:47;;;;;;;1999.90;999.90;;;20.30;99.90;;;;;;5010192;28;20473;-67
2023/08/19 03:37:14;;;;;;;1999.90;999.90;;;20.30;99.90;;;;;;5010361;28;20423;-67
2023/08/19 03:39:40;;;;;;;1999.90;999.90;;;20.20;99.90;;;;;;5009366;28;20444;-67
2023/08/19 03:42:08;;;;;;;1999.90;999.90;;;20.20;99.90;;;;;;5009731;28;21085;-67
2023/08/19 03:44:35;;;;;;;1999.90;999.90;;;20.20;99.90;;;;;;5010128;28;21097;-67
2023/08/19 03:47:02;;;;;;;1999.90;999.90;;;20.20;99.90;;;;;;5010022;28;20420;-67
2023/08/19 03:49:29;;;;;;;1999.90;999.90;;;20.10;99.90;;;;;;5008780;28;20461;-66
2023/08/19 03:51:55;;;;;;;1999.90;999.90;;;19.90;99.90;;;;;;5010030;28;20413;-67
2023/08/19 03:54:22;;;;;;;1999.90;999.90;;;19.90;99.90;;;;;;5010225;28;20474;-69
2023/08/19 03:56:49;;;;;;;1999.90;999.90;;;19.90;99.90;;;;;;5010086;28;20416;-66
2023/08/19 03:59:17;;;;;;;1999.90;999.90;;;20.10;99.90;;;;;;5008650;28;20459;-66
2023/08/19 04:01:43;;;;;;;1999.90;999.90;;;20.00;99.90;;;;;;5009505;28;20420;-66
2023/08/19 04:04:10;;;;;;;1999.90;999.90;;;20.00;99.90;;;;;;5010198;28;20432;-66
2023/08/19 04:06:37;;;;;;;1999.90;999.90;;;19.60;99.90;;;;;;5009921;28;20443;-67
2023/08/19 04:09:04;;;;;;;1999.90;999.90;;;19.70;99.90;;;;;;5007800;28;20433;-67
2023/08/19 04:11:31;;;;;;;1999.90;999.90;;;19.80;99.90;;;;;;5006588;28;20448;-67
2023/08/19 04:13:57;;;;;;;1999.90;999.90;;;19.80;99.90;;;;;;5011035;28;20782;-66
2023/08/19 04:16:25;;;;;;;1999.90;999.90;;;19.90;99.90;;;;;;5013398;28;20431;-67
2023/08/19 04:18:52;;;;;;;1999.90;999.90;;;20.00;99.90;;;;;;5012836;28;20413;-66
2023/08/19 04:21:19;;;;;;;1999.90;999.90;;;20.00;99.90;;;;;;5013399;28;20412;-69
2023/08/19 04:23:46;;;;;;;1999.90;999.90;;;20.10;99.90;;;;;;4993969;28;20434;-66
2023/08/19 04:26:12;;;;;;;1999.90;999.90;;;20.10;99.90;;;;;;4993972;28;20421;-67
2023/08/19 04:28:39;;;;;;;1999.90;999.90;;;20.20;99.90;;;;;;4993919;28;20410;-67
2023/08/19 04:31:07;;;;;;;1999.90;999.90;;;20.30;99.90;;;;;;5012340;28;20848;-66
2023/08/19 04:33:36;;;;;;;1999.90;999.90;;;20.10;99.90;;;;;;5013731;28;20413;-66
2023/08/19 04:36:03;;;;;;;1999.90;999.90;;;20.00;99.90;;;;;;5013421;28;20416;-67
2023/08/19 04:38:30;;;;;;;1999.90;999.90;;;20.00;99.90;;;;;;5013375;28;20890;-66
2023/08/19 04:40:59;;;;;;;1999.90;999.90;;;20.00;99.90;;;;;;5012347;28;20432;-66
2023/08/19 04:43:26;;;;;;;1999.90;999.90;;;20.10;99.90;;;;;;5013139;28;20436;-67
2023/08/19 04:45:54;;;;;;;1999.90;999.90;;;20.00;99.90;;;;;;5013246;28;20911;-66
2023/08/19 04:48:21;;;;;;;1999.90;999.90;;;20.00;99.90;;;;;;5013424;28;20513;-66
2023/08/19 04:50:49;;;;;;;1999.90;999.90;;;20.30;99.90;;;;;;5012026;28;20440;-66
2023/08/19 04:53:15;;;;;;;1999.90;999.90;;;20.30;99.90;;;;;;5013030;28;20416;-67
2023/08/19 04:55:42;;;;;;;1999.90;999.90;;;20.20;99.90;;;;;;5012384;28;20409;-66
2023/08/19 04:58:09;;;;;;;1999.90;999.90;;;20.10;99.90;;;;;;5012807;28;20447;-67
2023/08/19 05:00:37;;;;;;;1999.90;999.90;;;20.00;99.90;;;;;;5012857;28;20420;-67
2023/08/19 05:03:04;;;;;;;1999.90;999.90;;;19.90;99.90;;;;;;5012946;28;20432;-66
2023/08/19 05:05:31;;;;;;;1999.90;999.90;;;19.90;99.90;;;;;;5013036;28;20417;-67
2023/08/19 05:07:59;;;;;;;1999.90;999.90;;;20.00;99.90;;;;;;5012357;28;20436;-67
2023/08/19 05:10:26;;;;;;;1999.90;999.90;;;20.00;99.90;;;;;;5012735;28;20417;-67
2023/08/19 05:12:53;;;;;;;1999.90;999.90;;;20.10;99.90;;;;;;5012650;28;20828;-66
2023/08/19 05:15:19;;;;;;;1999.90;999.90;;;20.10;99.90;;;;;;5012999;28;20409;-66
2023/08/19 05:17:46;;;;;;;1999.90;999.90;;;19.90;99.90;;;;;;5033270;23;21174;-67
2023/08/19 05:20:13;;;;;;;1999.90;999.90;;;19.90;99.90;;;;;;4971031;28;20428;-71
2023/08/19 05:22:39;;;;;;;1999.90;999.90;;;20.40;99.90;;;;;;4973084;28;20424;-71
2023/08/19 05:25:09;;;;;;;1999.90;999.90;;;20.60;99.90;;;;;;4973645;28;20796;-71
2023/08/19 05:27:35;;;;;;;1999.90;999.90;;;20.70;99.90;;;;;;4973702;28;20495;-71
2023/08/19 05:30:04;;;;;;;1999.90;999.90;;;20.60;99.90;;;;;;4954197;28;20429;-71
2023/08/19 05:32:30;;;;;;;1999.90;999.90;;;20.80;99.90;;;;;;4954093;29;20426;-71
2023/08/19 05:34:57;;;;;;;1999.90;999.90;;;20.90;99.90;;;;;;4954430;29;20417;-68
2023/08/19 05:37:24;;;;;;;1999.90;999.90;;;21.50;99.90;;;;;;4953525;28;20437;-69
2023/08/19 05:39:50;;;;;;;1999.90;999.90;;;22.00;99.90;;;;;;4954180;28;20433;-67
2023/08/19 05:42:19;;;;;;;1999.90;999.90;;;22.50;99.90;;;;;;4954246;29;20418;-67
2023/08/19 05:44:45;;;;;;;1999.90;999.90;;;22.80;99.90;;;;;;4954332;29;20465;-69
2023/08/19 05:47:12;;;;;;;1999.90;999.90;;;23.00;99.90;;;;;;4953288;28;20445;-69
2023/08/19 05:49:39;;;;;;;1999.90;999.90;;;23.00;99.90;;;;;;4953810;28;20480;-69
2023/08/19 05:52:05;;;;;;;1999.90;999.90;;;23.20;99.90;;;;;;4953773;29;20759;-70
2023/08/19 05:54:32;;;;;;;1999.90;999.90;;;23.30;99.90;;;;;;4954258;29;20403;-69
2023/08/19 05:56:59;;;;;;;1999.90;999.90;;;23.60;99.90;;;;;;4953538;28;20438;-69
2023/08/19 05:59:27;;;;;;;1999.90;999.90;;;23.80;99.90;;;;;;4953665;28;20425;-67
2023/08/19 06:01:53;;;;;;;1999.90;999.90;;;23.90;99.90;;;;;;4953644;29;20426;-69
2023/08/19 06:04:20;;;;;;;1999.90;999.90;;;23.90;99.90;;;;;;4954123;29;20433;-67
2023/08/19 06:06:47;;;;;;;1999.90;999.90;;;23.90;99.90;;;;;;4952760;28;20452;-68
2023/08/19 06:09:13;;;;;;;1999.90;999.90;;;23.70;99.90;;;;;;4953136;28;20926;-70
2023/08/19 06:11:48;;;;;;;1999.90;999.90;;;23.60;99.90;;;;;;4953362;29;20422;-69
2023/08/19 06:14:14;;;;;;;1999.90;999.90;;;23.70;99.90;;;;;;4953524;29;20886;-69
2023/08/19 06:16:43;;;;;;;1999.90;999.90;;;23.90;99.90;;;;;;4952939;28;20437;-68
2023/08/19 06:19:10;;;;;;;1999.90;999.90;;;23.90;99.90;;;;;;4953331;28;20418;-69
2023/08/19 06:21:37;;;;;;;1999.90;999.90;;;24.00;99.90;;;;;;4953543;29;20830;-69
2023/08/19 06:24:04;;;;;;;1999.90;999.90;;;24.20;99.90;;;;;;4953547;29;20433;-69
2023/08/19 06:26:31;;;;;;;1999.90;999.90;;;24.30;99.90;;;;;;4952751;28;20456;-69
2023/08/19 06:28:57;;;;;;;1999.90;999.90;;;24.30;99.90;;;;;;4949359;28;20445;-69
2023/08/19 06:31:25;;;;;;;1999.90;999.90;;;24.30;99.90;;;;;;4953217;29;20424;-68
2023/08/19 06:33:54;;;;;;;1999.90;999.90;;;24.30;99.90;;;;;;4953526;29;20409;-69
2023/08/19 06:36:24;;;;;;;1999.90;999.90;;;24.40;99.90;;;;;;4952354;28;20436;-67
2023/08/19 06:39:08;;;;;;;1999.90;999.90;;;24.50;99.90;;;;;;4953027;28;20418;-68
2023/08/19 06:41:38;;;;;;;1999.90;999.90;;;24.50;99.90;;;;;;4953060;29;20414;-70
2023/08/19 06:44:08;;;;;;;1999.90;999.90;;;24.60;99.90;;;;;;4953323;29;20481;-70
2023/08/19 06:46:35;;;;;;;1999.90;999.90;;;24.60;99.90;;;;;;4952332;28;20449;-69
2023/08/19 06:49:04;;;;;;;1999.90;999.90;;;24.60;99.90;;;;;;4952837;28;20477;-69
2023/08/19 06:51:31;;;;;;;1999.90;999.90;;;24.70;99.90;;;;;;4952983;29;20441;-70
2023/08/19 06:53:58;;;;;;;1999.90;999.90;;;25.00;99.90;;;;;;4952915;29;20418;-70
2023/08/19 06:56:29;;;;;;;1999.90;999.90;;;25.20;99.90;;;;;;4952282;28;20442;-70
2023/08/19 06:59:03;;;;;;;1999.90;999.90;;;25.40;99.90;;;;;;4951840;28;20957;-70
2023/08/19 07:01:31;;;;;;;1999.90;999.90;;;25.40;99.90;;;;;;4952554;29;20506;-70
2023/08/19 07:03:58;;;;;;;1999.90;999.90;;;25.70;99.90;;;;;;4952747;29;20991;-69
2023/08/19 07:06:31;;;;;;;1999.90;999.90;;;25.90;99.90;;;;;;4951809;28;20437;-70
2023/08/19 07:08:59;;;;;;;1999.90;999.90;;;26.40;99.90;;;;;;4952402;28;20418;-70
2023/08/19 07:11:26;;;;;;;1999.90;999.90;;;26.40;99.90;;;;;;4952570;29;20823;-70
2023/08/19 07:13:54;;;;;;;1999.90;999.90;;;26.50;99.90;;;;;;4952570;29;20418;-70
2023/08/19 07:16:22;;;;;;;1999.90;999.90;;;26.60;99.90;;;;;;4951759;28;20562;-70
2023/08/19 07:18:53;;;;;;;1999.90;999.90;;;27.00;99.90;;;;;;4952209;28;20555;-70
2023/08/19 07:21:23;;;;;;;1999.90;999.90;;;27.20;99.90;;;;;;4952556;29;20831;-69
2023/08/19 07:23:54;;;;;;;1999.90;999.90;;;27.50;99.90;;;;;;4952657;29;20434;-70
2023/08/19 07:26:25;;;;;;;1999.90;999.90;;;27.40;99.90;;;;;;4951959;28;20424;-69
2023/08/19 07:28:52;;;;;;;1999.90;999.90;;;27.20;99.90;;;;;;4952185;28;20418;-70
2023/08/19 07:31:21;;;;;;;1999.90;999.90;;;27.40;99.90;;;;;;4953261;28;20445;-70
2023/08/19 07:33:48;;;;;;;1999.90;999.90;;;27.60;99.90;;;;;;4971519;28;20420;-70
2023/08/19 07:36:14;;;;;;;1999.90;999.90;;;27.70;99.90;;;;;;4968993;28;20420;-70
2023/08/19 07:38:41;;;;;;;1999.90;999.90;;;28.10;99.90;;;;;;4947961;28;20512;-68
2023/08/19 07:41:09;;;;;;;1999.90;999.90;;;28.30;99.90;;;;;;4950604;28;20429;-69
2023/08/19 07:43:36;;;;;;;1999.90;999.90;;;28.50;99.90;;;;;;4950419;29;21085;-70
2023/08/19 07:46:03;;;;;;;1999.90;999.90;;;28.50;99.90;;;;;;4951390;29;20422;-70
2023/08/19 07:48:31;;;;;;;1999.90;999.90;;;28.50;99.90;;;;;;4951763;28;20445;-68
2023/08/19 07:50:58;;;;;;;1999.90;999.90;;;28.60;99.90;;;;;;4956011;29;20430;-67
2023/08/19 07:53:25;;;;;;;1999.90;999.90;;;28.80;99.90;;;;;;4955145;28;20448;-69
2023/08/19 07:55:51;;;;;;;1999.90;999.90;;;28.80;99.90;;;;;;4955968;29;20424;-69
2023/08/19 07:58:19;;;;;;;1999.90;999.90;;;28.90;99.90;;;;;;4955930;28;20413;-68
2023/08/19 08:00:47;;;;;;;1999.90;999.90;;;29.10;99.90;;;;;;4955875;29;20414;-69
2023/08/19 08:03:13;;;;;;;1999.90;999.90;;;29.10;99.90;;;;;;4955102;28;20417;-68
2023/08/19 08:05:40;;;;;;;1999.90;999.90;;;29.20;99.90;;;;;;4953643;28;20433;-69
2023/08/19 08:08:07;;;;;;;1999.90;999.90;;;29.20;99.90;;;;;;4955871;28;20912;-69
2023/08/19 08:10:33;;;;;;;1999.90;999.90;;;29.30;99.90;;;;;;4955870;29;20425;-69
2023/08/19 08:13:00;;;;;;;1999.90;999.90;;;29.20;99.90;;;;;;4955153;28;20497;-69
2023/08/19 08:15:28;;;;;;;1999.90;999.90;;;29.60;99.90;;;;;;4957112;28;20928;-69
2023/08/19 08:17:55;;;;;;;1999.90;999.90;;;30.00;99.90;;;;;;4955316;28;20424;-67
2023/08/19 08:20:22;;;;;;;1999.90;999.90;;;30.30;99.90;;;;;;4955750;29;20417;-69
2023/08/19 08:22:49;;;;;;;1999.90;999.90;;;30.30;99.90;;;;;;4955334;29;20793;-68
2023/08/19 08:25:15;;;;;;;1999.90;999.90;;;30.60;99.90;;;;;;4954704;28;20442;-69
2023/08/19 08:27:42;;;;;;;1999.90;999.90;;;30.60;99.90;;;;;;4955273;28;20425;-67
2023/08/19 08:30:09;;;;;;;1999.90;999.90;;;30.50;99.90;;;;;;4955684;29;20425;-69
2023/08/19 08:32:38;;;;;;;1999.90;999.90;;;30.30;99.90;;;;;;4955499;29;20421;-69
2023/08/19 08:35:05;;;;;;;1999.90;999.90;;;30.10;99.90;;;;;;4954550;28;20429;-70
2023/08/19 08:37:32;;;;;;;1999.90;999.90;;;30.00;99.90;;;;;;4955036;29;20424;-71
2023/08/19 08:39:58;;;;;;;1999.90;999.90;;;30.00;99.90;;;;;;4954870;28;20429;-71
2023/08/19 08:42:26;;;;;;;1999.90;999.90;;;30.10;99.90;;;;;;4954853;29;20420;-70
2023/08/19 08:44:54;;;;;;;1999.90;999.90;;;30.30;99.90;;;;;;4954453;28;20437;-71
2023/08/19 08:47:21;;;;;;;1999.90;999.90;;;30.50;99.90;;;;;;4955052;29;20453;-69
2023/08/19 08:49:51;;;;;;;1999.90;999.90;;;30.60;99.90;;;;;;4954761;28;20418;-70
2023/08/19 08:52:18;;;;;;;1999.90;999.90;;;30.60;99.90;;;;;;4954803;29;20418;-69
2023/08/19 08:54:46;;;;;;;1999.90;999.90;;;30.60;99.90;;;;;;4954158;28;20441;-68
2023/08/19 08:57:16;;;;;;;1999.90;999.90;;;30.80;99.90;;;;;;4947413;29;20424;-71
2023/08/19 08:59:43;;;;;;;1999.90;999.90;;;30.70;99.90;;;;;;4953684;28;20448;-71
2023/08/19 09:02:12;;;;;;;1999.90;999.90;;;30.80;99.90;;;;;;4954540;29;20432;-71
2023/08/19 09:04:40;;;;;;;1999.90;999.90;;;30.80;99.90;;;;;;4954773;29;20440;-71
2023/08/19 09:07:13;;;;;;;1999.90;999.90;;;30.90;99.90;;;;;;4954438;29;20414;-70
2023/08/19 09:09:41;;;;;;;1999.90;999.90;;;31.00;99.90;;;;;;4953612;28;20468;-70
2023/08/19 09:12:12;;;;;;;1999.90;999.90;;;31.20;99.90;;;;;;4954346;29;20429;-70
2023/08/19 09:14:42;;;;;;;1999.90;999.90;;;31.00;99.90;;;;;;4954696;29;20413;-70
2023/08/19 09:17:10;;;;;;;1999.90;999.90;;;31.00;99.90;;;;;;4954549;29;20422;-70
2023/08/19 09:19:38;;;;;;;1999.90;999.90;;;31.10;99.90;;;;;;4953823;28;20445;-71
2023/08/19 09:22:23;;;;;;;1999.90;999.90;;;31.10;99.90;;;;;;4954114;29;20418;-69
2023/08/19 09:24:49;;;;;;;1999.90;999.90;;;31.10;99.90;;;;;;4954379;29;21029;-70
2023/08/19 09:27:19;;;;;;;1999.90;999.90;;;31.20;99.90;;;;;;4954369;29;20421;-70
2023/08/19 09:29:50;;;;;;;1999.90;999.90;;;31.10;99.90;;;;;;4953540;28;20470;-69
2023/08/19 09:32:17;;;;;;;1999.90;999.90;;;31.10;99.90;;;;;;4938583;29;20426;-70
2023/08/19 09:34:44;;;;;;;1999.90;999.90;;;31.40;99.90;;;;;;4954642;29;20416;-70
2023/08/19 09:37:11;;;;;;;1999.90;999.90;;;31.40;99.90;;;;;;4954359;29;20500;-70
2023/08/19 09:39:39;;;;;;;1999.90;999.90;;;31.40;99.90;;;;;;4952967;28;20468;-70
2023/08/19 09:42:09;;;;;;;1999.90;999.90;;;31.30;99.90;;;;;;4953627;28;20448;-70
2023/08/19 09:44:40;;;;;;;1999.90;999.90;;;31.10;99.90;;;;;;4953975;29;20430;-70
2023/08/19 09:47:06;;;;;;;1999.90;999.90;;;31.40;99.90;;;;;;4954263;29;20831;-67
2023/08/19 09:49:36;;;;;;;1999.90;999.90;;;31.50;99.90;;;;;;4953517;28;20538;-70
2023/08/19 09:52:03;;;;;;;1999.90;999.90;;;31.40;99.90;;;;;;4953587;28;20476;-70
2023/08/19 09:54:30;;;;;;;1999.90;999.90;;;31.50;99.90;;;;;;4954065;29;20418;-69
2023/08/19 09:56:59;;;;;;;1999.90;999.90;;;31.20;99.70;;;;;;4953117;28;20465;-70
2023/08/19 09:59:26;;;;;;;1999.90;999.90;;;31.00;99.90;;;;;;4953524;28;20433;-68
2023/08/19 10:01:54;;;;;;;1999.90;999.90;;;31.00;99.90;;;;;;4953024;28;20445;-70
2023/08/19 10:04:21;;;;;;;1999.90;999.90;;;31.00;99.90;;;;;;4953678;29;20465;-70
2023/08/19 10:06:50;;;;;;;1999.90;999.90;;;31.00;99.90;;;;;;4953882;29;20421;-69
2023/08/19 10:09:18;;;;;;;1999.90;999.90;;;31.00;99.00;;;;;;4953699;28;20421;-70
2023/08/19 10:11:46;;;;;;;1999.90;999.90;;;31.30;97.90;;;;;;4951820;28;20437;-70
2023/08/19 10:14:16;;;;;;;1999.90;999.90;;;31.30;97.80;;;;;;4952941;28;20448;-70
2023/08/19 10:16:46;;;;;;;1999.90;999.90;;;31.20;97.60;;;;;;4953835;29;20429;-69
2023/08/19 10:19:17;;;;;;;1999.90;999.90;;;31.30;97.50;;;;;;4953276;28;20429;-69
2023/08/19 10:21:46;;;;;;;1999.90;999.90;;;31.40;98.40;;;;;;4952408;28;20442;-69
2023/08/19 10:24:14;;;;;;;1999.90;999.90;;;31.70;97.70;;;;;;4952964;29;20433;-70
2023/08/19 10:26:41;;;;;;;1999.90;999.90;;;31.50;96.50;;;;;;4953130;29;20942;-71
2023/08/19 10:29:08;;;;;;;1999.90;999.90;;;31.80;97.20;;;;;;4953318;28;20790;-68
2023/08/19 10:31:37;;;;;;;1999.90;999.90;;;32.00;96.00;;;;;;4952464;28;20449;-69
2023/08/19 10:34:24;;;;;;;1999.90;999.90;;;32.20;95.70;;;;;;4953146;29;20413;-69
2023/08/19 10:37:06;;;;;;;1999.90;999.90;;;32.20;95.50;;;;;;4953180;29;20449;-69
2023/08/19 10:39:33;;;;;;;1999.90;999.90;;;32.20;94.80;;;;;;4953220;28;20453;-69
2023/08/19 10:42:00;;;;;;;1999.90;999.90;;;32.20;95.00;;;;;;4952386;28;20758;-69
2023/08/19 10:44:31;;;;;;;1999.90;999.90;;;32.20;95.80;;;;;;4953014;29;20418;-69
2023/08/19 10:47:10;;;;;;;1999.90;999.90;;;32.30;96.50;;;;;;4953101;29;20973;-67
2023/08/19 10:49:37;;;;;;;1999.90;999.90;;;32.50;95.40;;;;;;4953121;28;20421;-69
2023/08/19 10:52:05;;;;;;;1999.90;999.90;;;32.50;95.60;;;;;;4952790;28;20433;-70
2023/08/19 10:54:35;;;;;;;1999.90;999.90;;;32.30;95.30;;;;;;4952892;29;20803;-69
2023/08/19 10:57:13;;;;;;;1999.90;999.90;;;32.30;95.30;;;;;;4953072;29;20425;-69
2023/08/19 10:59:41;;;;;;;1999.90;999.90;;;32.30;94.70;;;;;;4952794;28;20508;-69
2023/08/19 11:02:11;;;;;;;1999.90;999.90;;;32.40;95.00;;;;;;4951727;28;20488;-69
2023/08/19 11:04:40;;;;;;;1999.90;999.90;;;32.50;95.20;;;;;;4952606;29;20445;-69
2023/08/19 11:07:07;;;;;;;1999.90;999.90;;;32.60;95.50;;;;;;4952679;29;20948;-69
2023/08/19 11:09:34;;;;;;;1999.90;999.90;;;32.60;95.30;;;;;;4952766;28;20424;-69
2023/08/19 11:12:01;;;;;;;1999.90;999.90;;;32.60;94.80;;;;;;4952402;28;20434;-69
2023/08/19 11:14:28;;;;;;;1999.90;999.90;;;32.70;94.20;;;;;;4952601;29;20436;-69
2023/08/19 11:16:56;;;;;;;1999.90;999.90;;;32.50;94.20;;;;;;4952893;29;20425;-69
2023/08/19 11:19:25;;;;;;;1999.90;999.90;;;32.60;94.60;;;;;;5004326;23;20655;-71
2023/08/19 11:21:52;;;;;;;1999.90;999.90;;;32.80;94.30;;;;;;4987630;28;20514;-69
2023/08/19 11:24:19;;;;;;;1999.90;999.90;;;33.00;93.60;;;;;;4990097;28;20434;-69
2023/08/19 11:26:48;;;;;;;1999.90;999.90;;;33.00;93.40;;;;;;4987730;28;20438;-69
2023/08/19 11:29:15;;;;;;;1999.90;999.90;;;33.00;92.50;;;;;;4982447;28;20432;-69
2023/08/19 11:31:43;;;;;;;1999.90;999.90;;;32.90;92.10;;;;;;4971398;28;20422;-69
2023/08/19 11:34:11;;;;;;;1999.90;999.90;;;32.90;92.10;;;;;;4972245;28;20467;-70
2023/08/19 11:36:39;;;;;;;1999.90;999.90;;;32.70;92.50;;;;;;4971917;28;20412;-70
2023/08/19 11:39:07;;;;;;;1999.90;999.90;;;32.70;91.60;;;;;;4970673;28;20432;-69
2023/08/19 11:41:34;;;;;;;1999.90;999.90;;;32.80;93.10;;;;;;4971304;28;20428;-69
2023/08/19 11:44:02;;;;;;;1999.90;999.90;;;32.90;92.50;;;;;;4971560;28;20420;-71
2023/08/19 11:46:29;;;;;;;1999.90;999.90;;;32.70;91.30;;;;;;4971555;28;20443;-68
2023/08/19 11:48:57;;;;;;;1999.90;999.90;;;32.70;92.00;;;;;;4967992;28;20432;-69
2023/08/19 11:51:23;;;;;;;1999.90;999.90;;;32.80;92.30;;;;;;4970429;28;20427;-69
2023/08/19 11:53:53;;;;;;;1999.90;999.90;;;32.80;91.40;;;;;;4971540;28;20423;-69
2023/08/19 11:56:20;;;;;;;1999.90;999.90;;;32.50;91.80;;;;;;4971436;28;20439;-70
2023/08/19 11:58:49;;;;;;;1999.90;999.90;;;32.60;91.90;;;;;;4970490;28;20460;-67
2023/08/19 12:01:16;;;;;;;1999.90;999.90;;;32.50;92.60;;;;;;4971267;28;20427;-68